KLYH/LYH METAR and TAF weather

Enter ICAO airport designator
Station Type Date Time Source
KLYH METAR 2019/08/22 03:54 UTC NOAA

KLYH 220354Z AUTO 22004KT 10SM CLR 22/20 A3001 RMK AO2 SLP152 T02170200


Station Type Date Time Source
KLYH Decoded METAR 2019/08/22 03:54 UTC NOAA

Station name not available
Aug 21, 2019 - 11:54 PM EDT / 2019.08.22 0354 UTC
Wind: from the SW (220 degrees) at 5 MPH (4 KT):0
Visibility: 10 mile(s):0
Sky conditions: clear
Temperature: 71.1 F (21.7 C)
Dew Point: 68.0 F (20.0 C)
Relative Humidity: 90%
Pressure (altimeter): 30.01 in. Hg (1016 hPa)
ob: KLYH 220354Z AUTO 22004KT 10SM CLR 22/20 A3001 RMK AO2 SLP152 T02170200
cycle: 4

Station Type Date Time Source
KLYH TAF 2019/08/22 04:18 UTC NOAA

TAF KLYH 220416Z 2204/2224 22003KT P6SM SCT050 SCT120 BKN200
FM220600 VRB03KT 6SM BR SCT120
TEMPO 2209/2212 3SM BR SCT025
FM221300 22004KT P6SM SCT035 BKN150

Example: see airport list